Terminal Aerodrome Forecast
Issued by NWS North Platte, NE

Home | Current Version | Previous Version | Text Only | Print | Product List | Glossary On
Versions: 1 2 3 4 5 6 7 8 9 10 11 12 13 14 15 16 17 18 19 20 21
000
FTUS43 KLBF 170500
TAFLBF
TAF
KLBF 170536Z 1706/1806 11005KT 6SM BR SCT250
     FM170900 11003KT 1SM BCFG FEW005 SCT250
      TEMPO 1710/1712 1/2SM FG VV002
     FM171400 11004KT 3SM BR SCT250
     FM171500 11004KT P6SM SCT250
     FM171700 13009KT P6SM SKC=

USA.gov is the U.S. government's official web portal to all federal, state and local government web resources and services.